Portada
METAR-TAF:

METAR-TAF

Aeropuertos :

Shenandoah Municipal Airport

Shenandoah, Iowa, Estados Unidos

latitud: 40-45N, longitud: 095-25W, altitud: 296 m

Observación

El informe se hizo hace 17 minutos, a las 07:55 UTC
Viento 4 kt del este-sureste
Temperatura 15°C
Humedad 88%
Presión 1023 hPa
Visibilidad: 16.1 km
Cielo cubierto a una altura de 6000 ft

METAR: KSDA 310755Z AUTO 11004KT 10SM OVC060 15/13 A3022 RMK AO2

Hora: 03:12 (08:12 UTC)


TAF: falta

Observaciones y pronósticos meteorológicos de más de 4000 aeropuertos (mensajes METAR y TAF).

Los puntos amarillos y rojos representan las estaciones disponibles.

Ponga el ratón en el punto deseado para ver el nombre de la estación.

Haga clic para ver las observaciones y los pronósticos meteorológicos.

Para cambiar el mapa : haga clic en los botones verdes con una cruz de color negro para hacer un zoom, en el botón verde con un guión para alejar o en las flechas verdes para mapas adyacentes.


METAR-TAF: